Callison, South Carolina
Current Conditions -  °F | °C
As of 12:56 AM on Sunday 26 Oct 2014 (Local Time) from KGRD Reporting Station
Clear Clear  
Wind Chill: 55°   Ceiling: Unl
Heat Index: 55°   Visibility: 10mi
Dew Point: 48°   Wind: 3mph
Humidity: 77%   Direction: 250°WSW
Pressure: 29.97"   Gusts: NA
Location:  34.036°N, 82.2186°W
Report Text: KGRD 260456Z AUTO 25003KT 10SM CLR 13/09 A2997 RMK AO2 SLP143 T01280089 402330044
Loading
Personal Weather Stations






























Interactive Weather Map
Tropical Storm Tracking
New forecast layout! Learn more

10-Day Weather Forecast

Advertisements
Track Severe Weather on mobile